Portada
METAR-TAF:

METAR-TAF

Aeroports :

Okayama, Japó

latitud: 34-45N, longitud: 133-51E, altitud: 241 m

Observació

L'informe es va fer fa 11 minuts, a les 10:00 UTC
Vent 1 kt amb direcció variable
Temperatura 10°C
Humitat 82%
Pressió 1014 hPa
Visibilitat 10 km o més
Escasses núvols a una alçada de 2000 ft

METAR: RJOB 191000Z VRB01KT 9999 FEW020 10/07 Q1014

Hora: 19:11 (10:11 UTC)

Pronòstic

L'informe es va fer fa 5 hores i 4 minuts, a les 05:07 UTC
Pronòstic vàlid del 19 a les 06 UTC al 20 a les 12 UTC
Vent 5 kt del Nord/Nord-Est
Visibilitat 10 km o més
Escasses núvols a una alçada de 2000 ft

TAF: RJOB 190507Z 1906/2012 02005KT 9999 FEW020

Observacions i pronòstics meteorològics de més de 4000 aeroports (METAR i TAF).

Les estacions disponibles són els punts grocs i vermells al mapa.

Posi el ratolí al punt desitjat per veure el nom de l'estació.

Feu clic per veure les observacions i els pronòstics meteorològics.

Per canviar el mapa: feu clic els botons verds amb una creu de color negre per apropar; al botó verd amb un guió per allunyar la imatge; o en les fletxes verdes per a mapes adjacents.


METAR-TAF: